sensor_id;sensor_type;location;lat;lon;timestamp;P1;durP1;ratioP1;P2;durP2;ratioP2
55800;SDS011;41730;51.960;20.158;2022-09-02T00:00:21;4.00;;;2.50;;
55800;SDS011;41730;51.960;20.158;2022-09-02T00:02:53;4.50;;;2.60;;
55800;SDS011;41730;51.960;20.158;2022-09-02T00:05:25;4.30;;;2.40;;
55800;SDS011;41730;51.960;20.158;2022-09-02T00:07:57;4.50;;;2.40;;
55800;SDS011;41730;51.960;20.158;2022-09-02T00:10:29;3.40;;;2.20;;
55800;SDS011;41730;51.960;20.158;2022-09-02T00:13:02;5.00;;;2.20;;
55800;SDS011;41730;51.960;20.158;2022-09-02T00:15:35;5.30;;;2.60;;
55800;SDS011;41730;51.960;20.158;2022-09-02T00:18:07;4.70;;;2.30;;
55800;SDS011;41730;51.960;20.158;2022-09-02T00:20:45;4.10;;;2.20;;
55800;SDS011;41730;51.960;20.158;2022-09-02T00:23:18;5.80;;;2.70;;
55800;SDS011;41730;51.960;20.158;2022-09-02T00:25:54;5.10;;;2.30;;
55800;SDS011;41730;51.960;20.158;2022-09-02T00:28:26;4.30;;;2.40;;
55800;SDS011;41730;51.960;20.158;2022-09-02T00:30:59;4.90;;;2.00;;
55800;SDS011;41730;51.960;20.158;2022-09-02T00:33:30;5.80;;;2.20;;
55800;SDS011;41730;51.960;20.158;2022-09-02T00:36:03;5.30;;;2.20;;
55800;SDS011;41730;51.960;20.158;2022-09-02T00:38:37;5.50;;;2.20;;
55800;SDS011;41730;51.960;20.158;2022-09-02T00:41:09;4.60;;;2.40;;
55800;SDS011;41730;51.960;20.158;2022-09-02T00:43:43;4.70;;;1.90;;
55800;SDS011;41730;51.960;20.158;2022-09-02T00:46:17;5.00;;;2.30;;
55800;SDS011;41730;51.960;20.158;2022-09-02T00:48:52;5.40;;;2.10;;
55800;SDS011;41730;51.960;20.158;2022-09-02T00:51:29;5.70;;;2.20;;
55800;SDS011;41730;51.960;20.158;2022-09-02T00:54:05;4.40;;;2.00;;
55800;SDS011;41730;51.960;20.158;2022-09-02T00:56:39;3.60;;;2.20;;
55800;SDS011;41730;51.960;20.158;2022-09-02T00:59:14;4.70;;;2.40;;
55800;SDS011;41730;51.960;20.158;2022-09-02T01:01:51;4.00;;;2.90;;
55800;SDS011;41730;51.960;20.158;2022-09-02T01:04:23;4.60;;;2.50;;
55800;SDS011;41730;51.960;20.158;2022-09-02T01:06:56;8.40;;;3.10;;
55800;SDS011;41730;51.960;20.158;2022-09-02T01:09:28;8.20;;;2.80;;
55800;SDS011;41730;51.960;20.158;2022-09-02T01:12:00;6.40;;;2.50;;
55800;SDS011;41730;51.960;20.158;2022-09-02T01:14:34;3.90;;;2.40;;
55800;SDS011;41730;51.960;20.158;2022-09-02T01:17:06;3.80;;;2.20;;
55800;SDS011;41730;51.960;20.158;2022-09-02T01:19:38;3.60;;;2.00;;
55800;SDS011;41730;51.960;20.158;2022-09-02T01:22:17;4.50;;;2.10;;
55800;SDS011;41730;51.960;20.158;2022-09-02T01:24:51;4.20;;;2.20;;
55800;SDS011;41730;51.960;20.158;2022-09-02T01:27:27;3.90;;;2.20;;
55800;SDS011;41730;51.960;20.158;2022-09-02T01:29:59;3.90;;;2.10;;
55800;SDS011;41730;51.960;20.158;2022-09-02T01:32:32;4.90;;;2.00;;
55800;SDS011;41730;51.960;20.158;2022-09-02T01:35:05;3.80;;;2.00;;
55800;SDS011;41730;51.960;20.158;2022-09-02T01:37:40;4.90;;;2.10;;
55800;SDS011;41730;51.960;20.158;2022-09-02T01:40:23;4.00;;;2.00;;
55800;SDS011;41730;51.960;20.158;2022-09-02T01:42:57;3.60;;;2.00;;
55800;SDS011;41730;51.960;20.158;2022-09-02T01:45:30;4.30;;;1.90;;
55800;SDS011;41730;51.960;20.158;2022-09-02T01:48:03;3.90;;;2.00;;
55800;SDS011;41730;51.960;20.158;2022-09-02T01:50:37;2.60;;;1.90;;
55800;SDS011;41730;51.960;20.158;2022-09-02T01:53:13;5.60;;;2.70;;
55800;SDS011;41730;51.960;20.158;2022-09-02T01:55:45;3.10;;;1.90;;
55800;SDS011;41730;51.960;20.158;2022-09-02T01:58:17;3.90;;;1.70;;
55800;SDS011;41730;51.960;20.158;2022-09-02T02:00:50;5.30;;;1.90;;
55800;SDS011;41730;51.960;20.158;2022-09-02T02:03:22;4.70;;;2.20;;
55800;SDS011;41730;51.960;20.158;2022-09-02T02:05:55;3.20;;;1.80;;
55800;SDS011;41730;51.960;20.158;2022-09-02T02:08:27;3.00;;;2.10;;
55800;SDS011;41730;51.960;20.158;2022-09-02T02:10:58;4.30;;;2.10;;
55800;SDS011;41730;51.960;20.158;2022-09-02T02:13:30;3.90;;;2.10;;
55800;SDS011;41730;51.960;20.158;2022-09-02T02:16:02;3.80;;;2.00;;
55800;SDS011;41730;51.960;20.158;2022-09-02T02:18:34;4.30;;;2.10;;
55800;SDS011;41730;51.960;20.158;2022-09-02T02:21:06;3.70;;;2.00;;
55800;SDS011;41730;51.960;20.158;2022-09-02T02:23:38;4.60;;;2.10;;
55800;SDS011;41730;51.960;20.158;2022-09-02T02:26:10;4.30;;;2.30;;
55800;SDS011;41730;51.960;20.158;2022-09-02T02:28:41;4.60;;;2.40;;
55800;SDS011;41730;51.960;20.158;2022-09-02T02:31:13;3.50;;;2.50;;
55800;SDS011;41730;51.960;20.158;2022-09-02T02:33:45;4.30;;;2.30;;
55800;SDS011;41730;51.960;20.158;2022-09-02T02:36:17;4.40;;;2.40;;
55800;SDS011;41730;51.960;20.158;2022-09-02T02:38:49;4.60;;;2.30;;
55800;SDS011;41730;51.960;20.158;2022-09-02T02:41:21;4.90;;;2.40;;
55800;SDS011;41730;51.960;20.158;2022-09-02T02:43:52;4.10;;;2.30;;
55800;SDS011;41730;51.960;20.158;2022-09-02T02:46:24;5.20;;;2.50;;
55800;SDS011;41730;51.960;20.158;2022-09-02T02:48:59;4.60;;;2.30;;
55800;SDS011;41730;51.960;20.158;2022-09-02T02:51:30;4.90;;;2.50;;
55800;SDS011;41730;51.960;20.158;2022-09-02T02:54:03;5.50;;;2.70;;
55800;SDS011;41730;51.960;20.158;2022-09-02T02:56:35;3.50;;;2.60;;
55800;SDS011;41730;51.960;20.158;2022-09-02T02:59:07;3.70;;;2.30;;
55800;SDS011;41730;51.960;20.158;2022-09-02T03:01:38;3.70;;;2.40;;
55800;SDS011;41730;51.960;20.158;2022-09-02T03:04:10;4.20;;;2.60;;
55800;SDS011;41730;51.960;20.158;2022-09-02T03:06:42;4.60;;;2.40;;
55800;SDS011;41730;51.960;20.158;2022-09-02T03:09:13;4.30;;;2.40;;
55800;SDS011;41730;51.960;20.158;2022-09-02T03:11:47;4.30;;;2.10;;
55800;SDS011;41730;51.960;20.158;2022-09-02T03:14:19;3.90;;;2.70;;
55800;SDS011;41730;51.960;20.158;2022-09-02T03:16:52;5.10;;;2.60;;
55800;SDS011;41730;51.960;20.158;2022-09-02T03:19:23;3.90;;;2.30;;
55800;SDS011;41730;51.960;20.158;2022-09-02T03:21:55;4.80;;;2.80;;
55800;SDS011;41730;51.960;20.158;2022-09-02T03:24:27;4.80;;;2.90;;
55800;SDS011;41730;51.960;20.158;2022-09-02T03:26:58;5.60;;;2.90;;
55800;SDS011;41730;51.960;20.158;2022-09-02T03:29:30;5.70;;;2.70;;
55800;SDS011;41730;51.960;20.158;2022-09-02T03:32:02;5.50;;;2.70;;
55800;SDS011;41730;51.960;20.158;2022-09-02T03:34:34;4.40;;;2.80;;
55800;SDS011;41730;51.960;20.158;2022-09-02T03:37:07;5.60;;;3.00;;
55800;SDS011;41730;51.960;20.158;2022-09-02T03:39:41;5.80;;;3.00;;
55800;SDS011;41730;51.960;20.158;2022-09-02T03:42:16;6.30;;;2.80;;
55800;SDS011;41730;51.960;20.158;2022-09-02T03:47:20;5.50;;;2.60;;
55800;SDS011;41730;51.960;20.158;2022-09-02T03:49:52;4.80;;;2.70;;
55800;SDS011;41730;51.960;20.158;2022-09-02T03:52:24;5.10;;;2.70;;
55800;SDS011;41730;51.960;20.158;2022-09-02T03:54:56;5.10;;;3.10;;
55800;SDS011;41730;51.960;20.158;2022-09-02T03:57:27;7.10;;;2.80;;
55800;SDS011;41730;51.960;20.158;2022-09-02T04:00:03;5.60;;;3.00;;
55800;SDS011;41730;51.960;20.158;2022-09-02T04:02:36;5.40;;;2.70;;
55800;SDS011;41730;51.960;20.158;2022-09-02T04:05:08;5.70;;;2.90;;
55800;SDS011;41730;51.960;20.158;2022-09-02T04:07:42;7.30;;;2.80;;
55800;SDS011;41730;51.960;20.158;2022-09-02T04:10:14;9.40;;;3.10;;
55800;SDS011;41730;51.960;20.158;2022-09-02T04:12:46;15.90;;;2.90;;
55800;SDS011;41730;51.960;20.158;2022-09-02T04:15:18;6.90;;;3.20;;
55800;SDS011;41730;51.960;20.158;2022-09-02T04:17:50;8.40;;;3.10;;
55800;SDS011;41730;51.960;20.158;2022-09-02T04:20:22;9.80;;;3.20;;
55800;SDS011;41730;51.960;20.158;2022-09-02T04:22:55;7.50;;;3.20;;
55800;SDS011;41730;51.960;20.158;2022-09-02T04:25:27;7.60;;;3.10;;
55800;SDS011;41730;51.960;20.158;2022-09-02T04:27:58;8.40;;;3.20;;
55800;SDS011;41730;51.960;20.158;2022-09-02T04:30:30;8.90;;;3.30;;
55800;SDS011;41730;51.960;20.158;2022-09-02T04:33:02;9.60;;;3.30;;
55800;SDS011;41730;51.960;20.158;2022-09-02T04:35:35;5.80;;;2.80;;
55800;SDS011;41730;51.960;20.158;2022-09-02T04:38:10;6.10;;;3.00;;
55800;SDS011;41730;51.960;20.158;2022-09-02T04:40:43;5.50;;;3.30;;
55800;SDS011;41730;51.960;20.158;2022-09-02T04:43:15;5.40;;;2.90;;
55800;SDS011;41730;51.960;20.158;2022-09-02T04:45:47;5.90;;;3.10;;
55800;SDS011;41730;51.960;20.158;2022-09-02T04:48:19;5.10;;;3.00;;
55800;SDS011;41730;51.960;20.158;2022-09-02T04:50:51;7.60;;;3.20;;
55800;SDS011;41730;51.960;20.158;2022-09-02T04:53:23;7.50;;;3.70;;
55800;SDS011;41730;51.960;20.158;2022-09-02T04:55:54;5.90;;;3.30;;
55800;SDS011;41730;51.960;20.158;2022-09-02T04:58:26;4.70;;;3.00;;
55800;SDS011;41730;51.960;20.158;2022-09-02T05:00:58;4.60;;;2.80;;
55800;SDS011;41730;51.960;20.158;2022-09-02T05:03:34;4.20;;;3.00;;
55800;SDS011;41730;51.960;20.158;2022-09-02T05:06:07;4.50;;;2.60;;
55800;SDS011;41730;51.960;20.158;2022-09-02T05:08:41;3.90;;;2.70;;
55800;SDS011;41730;51.960;20.158;2022-09-02T05:11:16;9.40;;;3.40;;
55800;SDS011;41730;51.960;20.158;2022-09-02T05:13:51;5.70;;;3.00;;
55800;SDS011;41730;51.960;20.158;2022-09-02T05:16:25;5.40;;;3.10;;
55800;SDS011;41730;51.960;20.158;2022-09-02T05:21:28;9.10;;;3.30;;
55800;SDS011;41730;51.960;20.158;2022-09-02T05:24:01;5.40;;;3.10;;
55800;SDS011;41730;51.960;20.158;2022-09-02T05:26:33;7.30;;;3.20;;
55800;SDS011;41730;51.960;20.158;2022-09-02T05:29:05;6.90;;;2.90;;
55800;SDS011;41730;51.960;20.158;2022-09-02T05:31:38;4.30;;;2.80;;
55800;SDS011;41730;51.960;20.158;2022-09-02T05:34:10;5.70;;;2.80;;
55800;SDS011;41730;51.960;20.158;2022-09-02T05:36:42;6.70;;;2.80;;
55800;SDS011;41730;51.960;20.158;2022-09-02T05:39:15;5.50;;;2.60;;
55800;SDS011;41730;51.960;20.158;2022-09-02T05:41:47;5.00;;;2.90;;
55800;SDS011;41730;51.960;20.158;2022-09-02T05:44:18;8.10;;;3.90;;
55800;SDS011;41730;51.960;20.158;2022-09-02T05:46:52;5.20;;;2.70;;
55800;SDS011;41730;51.960;20.158;2022-09-02T05:49:24;6.00;;;2.60;;
55800;SDS011;41730;51.960;20.158;2022-09-02T05:51:56;7.10;;;2.60;;
55800;SDS011;41730;51.960;20.158;2022-09-02T05:54:30;4.90;;;2.50;;
55800;SDS011;41730;51.960;20.158;2022-09-02T05:57:04;5.90;;;2.20;;
55800;SDS011;41730;51.960;20.158;2022-09-02T05:59:38;5.60;;;2.40;;
55800;SDS011;41730;51.960;20.158;2022-09-02T06:02:12;5.20;;;2.30;;
55800;SDS011;41730;51.960;20.158;2022-09-02T06:04:46;4.40;;;2.30;;
55800;SDS011;41730;51.960;20.158;2022-09-02T06:07:21;6.40;;;1.70;;
55800;SDS011;41730;51.960;20.158;2022-09-02T06:09:55;5.30;;;1.90;;
55800;SDS011;41730;51.960;20.158;2022-09-02T06:12:26;4.00;;;1.90;;
55800;SDS011;41730;51.960;20.158;2022-09-02T06:15:00;4.90;;;1.90;;
55800;SDS011;41730;51.960;20.158;2022-09-02T06:17:32;4.10;;;2.10;;
55800;SDS011;41730;51.960;20.158;2022-09-02T06:20:06;5.00;;;2.00;;
55800;SDS011;41730;51.960;20.158;2022-09-02T06:22:39;3.20;;;1.40;;
55800;SDS011;41730;51.960;20.158;2022-09-02T06:25:11;4.50;;;1.80;;
55800;SDS011;41730;51.960;20.158;2022-09-02T06:27:43;3.70;;;1.40;;
55800;SDS011;41730;51.960;20.158;2022-09-02T06:30:15;4.60;;;1.70;;
55800;SDS011;41730;51.960;20.158;2022-09-02T06:32:47;3.60;;;1.60;;
55800;SDS011;41730;51.960;20.158;2022-09-02T06:35:19;7.80;;;2.00;;
55800;SDS011;41730;51.960;20.158;2022-09-02T06:37:50;4.60;;;1.80;;
55800;SDS011;41730;51.960;20.158;2022-09-02T06:40:22;5.00;;;1.70;;
55800;SDS011;41730;51.960;20.158;2022-09-02T06:42:54;3.10;;;1.60;;
55800;SDS011;41730;51.960;20.158;2022-09-02T06:45:26;6.00;;;1.70;;
55800;SDS011;41730;51.960;20.158;2022-09-02T06:47:59;4.70;;;1.60;;
55800;SDS011;41730;51.960;20.158;2022-09-02T06:50:38;3.40;;;1.50;;
55800;SDS011;41730;51.960;20.158;2022-09-02T06:53:11;2.80;;;1.70;;
55800;SDS011;41730;51.960;20.158;2022-09-02T06:55:45;4.80;;;1.80;;
55800;SDS011;41730;51.960;20.158;2022-09-02T06:58:19;3.90;;;1.60;;
55800;SDS011;41730;51.960;20.158;2022-09-02T07:00:50;3.00;;;1.40;;
55800;SDS011;41730;51.960;20.158;2022-09-02T07:03:22;4.60;;;1.40;;
55800;SDS011;41730;51.960;20.158;2022-09-02T07:06:11;3.50;;;1.30;;
55800;SDS011;41730;51.960;20.158;2022-09-02T07:08:43;5.50;;;1.30;;
55800;SDS011;41730;51.960;20.158;2022-09-02T07:11:16;2.80;;;1.20;;
55800;SDS011;41730;51.960;20.158;2022-09-02T07:13:51;2.90;;;1.00;;
55800;SDS011;41730;51.960;20.158;2022-09-02T07:16:22;3.30;;;1.30;;
55800;SDS011;41730;51.960;20.158;2022-09-02T07:18:54;2.90;;;1.30;;
55800;SDS011;41730;51.960;20.158;2022-09-02T07:21:28;4.70;;;1.40;;
55800;SDS011;41730;51.960;20.158;2022-09-02T07:24:00;3.40;;;1.40;;
55800;SDS011;41730;51.960;20.158;2022-09-02T07:26:33;4.40;;;1.30;;
55800;SDS011;41730;51.960;20.158;2022-09-02T07:29:05;3.00;;;1.10;;
55800;SDS011;41730;51.960;20.158;2022-09-02T07:31:40;2.80;;;1.00;;
55800;SDS011;41730;51.960;20.158;2022-09-02T07:34:14;2.60;;;1.00;;
55800;SDS011;41730;51.960;20.158;2022-09-02T07:36:46;3.70;;;1.10;;
55800;SDS011;41730;51.960;20.158;2022-09-02T07:39:18;4.10;;;1.00;;
55800;SDS011;41730;51.960;20.158;2022-09-02T07:41:50;2.90;;;1.10;;
55800;SDS011;41730;51.960;20.158;2022-09-02T07:44:22;3.00;;;1.10;;
55800;SDS011;41730;51.960;20.158;2022-09-02T07:46:54;1.70;;;0.90;;
55800;SDS011;41730;51.960;20.158;2022-09-02T07:49:25;2.30;;;0.90;;
55800;SDS011;41730;51.960;20.158;2022-09-02T07:52:17;1.90;;;0.90;;
55800;SDS011;41730;51.960;20.158;2022-09-02T07:54:49;2.90;;;0.90;;
55800;SDS011;41730;51.960;20.158;2022-09-02T07:57:20;4.30;;;0.90;;
55800;SDS011;41730;51.960;20.158;2022-09-02T07:59:52;2.40;;;0.80;;
55800;SDS011;41730;51.960;20.158;2022-09-02T08:02:24;6.70;;;1.20;;
55800;SDS011;41730;51.960;20.158;2022-09-02T08:04:56;2.50;;;0.70;;
55800;SDS011;41730;51.960;20.158;2022-09-02T08:07:28;2.30;;;0.70;;
55800;SDS011;41730;51.960;20.158;2022-09-02T08:10:00;3.00;;;0.80;;
55800;SDS011;41730;51.960;20.158;2022-09-02T08:12:32;2.10;;;0.80;;
55800;SDS011;41730;51.960;20.158;2022-09-02T08:15:04;2.00;;;0.90;;
55800;SDS011;41730;51.960;20.158;2022-09-02T08:17:37;2.10;;;0.70;;
55800;SDS011;41730;51.960;20.158;2022-09-02T08:20:11;3.10;;;1.00;;
55800;SDS011;41730;51.960;20.158;2022-09-02T08:22:43;2.20;;;1.00;;
55800;SDS011;41730;51.960;20.158;2022-09-02T08:25:32;1.60;;;0.80;;
55800;SDS011;41730;51.960;20.158;2022-09-02T08:28:05;2.20;;;0.80;;
55800;SDS011;41730;51.960;20.158;2022-09-02T08:30:37;1.70;;;0.60;;
55800;SDS011;41730;51.960;20.158;2022-09-02T08:33:16;4.60;;;1.10;;
55800;SDS011;41730;51.960;20.158;2022-09-02T08:35:48;2.20;;;0.60;;
55800;SDS011;41730;51.960;20.158;2022-09-02T08:38:21;1.20;;;0.60;;
55800;SDS011;41730;51.960;20.158;2022-09-02T08:40:52;1.50;;;0.60;;
55800;SDS011;41730;51.960;20.158;2022-09-02T08:43:29;1.30;;;0.50;;
55800;SDS011;41730;51.960;20.158;2022-09-02T08:46:07;1.70;;;0.50;;
55800;SDS011;41730;51.960;20.158;2022-09-02T08:48:44;1.90;;;0.80;;
55800;SDS011;41730;51.960;20.158;2022-09-02T08:51:20;1.00;;;0.50;;
55800;SDS011;41730;51.960;20.158;2022-09-02T08:54:05;2.10;;;0.60;;
55800;SDS011;41730;51.960;20.158;2022-09-02T08:56:42;1.50;;;0.70;;
55800;SDS011;41730;51.960;20.158;2022-09-02T08:59:15;1.50;;;0.50;;
55800;SDS011;41730;51.960;20.158;2022-09-02T09:01:50;2.20;;;0.70;;
55800;SDS011;41730;51.960;20.158;2022-09-02T09:04:45;4.30;;;0.90;;
55800;SDS011;41730;51.960;20.158;2022-09-02T09:07:31;1.60;;;0.50;;
55800;SDS011;41730;51.960;20.158;2022-09-02T09:10:17;2.80;;;0.50;;
55800;SDS011;41730;51.960;20.158;2022-09-02T09:12:56;1.40;;;0.60;;
55800;SDS011;41730;51.960;20.158;2022-09-02T09:15:41;3.20;;;0.80;;
55800;SDS011;41730;51.960;20.158;2022-09-02T09:18:22;2.00;;;0.70;;
55800;SDS011;41730;51.960;20.158;2022-09-02T09:21:02;1.80;;;0.60;;
55800;SDS011;41730;51.960;20.158;2022-09-02T09:23:38;1.50;;;0.70;;
55800;SDS011;41730;51.960;20.158;2022-09-02T09:26:10;2.30;;;0.60;;
55800;SDS011;41730;51.960;20.158;2022-09-02T09:28:47;2.60;;;0.60;;
55800;SDS011;41730;51.960;20.158;2022-09-02T09:31:21;3.50;;;0.60;;
55800;SDS011;41730;51.960;20.158;2022-09-02T09:33:58;1.50;;;0.60;;
55800;SDS011;41730;51.960;20.158;2022-09-02T09:36:48;3.60;;;0.50;;
55800;SDS011;41730;51.960;20.158;2022-09-02T09:39:23;3.20;;;0.70;;
55800;SDS011;41730;51.960;20.158;2022-09-02T09:41:57;2.30;;;0.60;;
55800;SDS011;41730;51.960;20.158;2022-09-02T09:44:35;1.90;;;0.70;;
55800;SDS011;41730;51.960;20.158;2022-09-02T09:47:09;3.40;;;0.50;;
55800;SDS011;41730;51.960;20.158;2022-09-02T09:49:47;1.20;;;0.50;;
55800;SDS011;41730;51.960;20.158;2022-09-02T09:52:22;3.60;;;0.70;;
55800;SDS011;41730;51.960;20.158;2022-09-02T09:55:09;2.30;;;0.60;;
55800;SDS011;41730;51.960;20.158;2022-09-02T09:57:52;2.30;;;0.50;;
55800;SDS011;41730;51.960;20.158;2022-09-02T10:00:38;1.10;;;0.50;;
55800;SDS011;41730;51.960;20.158;2022-09-02T10:03:17;1.70;;;0.60;;
55800;SDS011;41730;51.960;20.158;2022-09-02T10:05:53;2.20;;;0.70;;
55800;SDS011;41730;51.960;20.158;2022-09-02T10:08:28;2.40;;;0.60;;
55800;SDS011;41730;51.960;20.158;2022-09-02T10:11:01;2.00;;;0.50;;
55800;SDS011;41730;51.960;20.158;2022-09-02T10:13:35;1.30;;;0.50;;
55800;SDS011;41730;51.960;20.158;2022-09-02T10:16:11;1.50;;;0.60;;
55800;SDS011;41730;51.960;20.158;2022-09-02T10:18:54;1.50;;;0.60;;
55800;SDS011;41730;51.960;20.158;2022-09-02T10:21:34;1.90;;;0.70;;
55800;SDS011;41730;51.960;20.158;2022-09-02T10:24:27;2.10;;;0.60;;
55800;SDS011;41730;51.960;20.158;2022-09-02T10:27:14;2.70;;;1.40;;
55800;SDS011;41730;51.960;20.158;2022-09-02T10:29:53;1.70;;;0.80;;
55800;SDS011;41730;51.960;20.158;2022-09-02T10:32:35;4.50;;;2.00;;
55800;SDS011;41730;51.960;20.158;2022-09-02T10:35:16;2.80;;;0.60;;
55800;SDS011;41730;51.960;20.158;2022-09-02T10:38:03;1.20;;;0.60;;
55800;SDS011;41730;51.960;20.158;2022-09-02T10:40:42;3.20;;;0.60;;
55800;SDS011;41730;51.960;20.158;2022-09-02T10:43:22;1.70;;;0.70;;
55800;SDS011;41730;51.960;20.158;2022-09-02T10:46:05;3.00;;;0.70;;
55800;SDS011;41730;51.960;20.158;2022-09-02T10:48:46;2.50;;;0.80;;
55800;SDS011;41730;51.960;20.158;2022-09-02T10:51:26;2.50;;;0.90;;
55800;SDS011;41730;51.960;20.158;2022-09-02T10:54:09;1.10;;;0.50;;
55800;SDS011;41730;51.960;20.158;2022-09-02T10:59:25;1.50;;;0.50;;
55800;SDS011;41730;51.960;20.158;2022-09-02T11:02:04;2.20;;;0.70;;
55800;SDS011;41730;51.960;20.158;2022-09-02T11:04:43;2.30;;;0.60;;
55800;SDS011;41730;51.960;20.158;2022-09-02T11:07:23;2.10;;;0.50;;
55800;SDS011;41730;51.960;20.158;2022-09-02T11:10:04;1.80;;;0.50;;
55800;SDS011;41730;51.960;20.158;2022-09-02T11:12:43;1.80;;;0.70;;
55800;SDS011;41730;51.960;20.158;2022-09-02T11:15:22;1.90;;;0.50;;
55800;SDS011;41730;51.960;20.158;2022-09-02T11:18:03;2.50;;;0.70;;
55800;SDS011;41730;51.960;20.158;2022-09-02T11:20:47;1.50;;;0.60;;
55800;SDS011;41730;51.960;20.158;2022-09-02T11:23:28;2.60;;;0.70;;
55800;SDS011;41730;51.960;20.158;2022-09-02T11:26:09;1.90;;;0.50;;
55800;SDS011;41730;51.960;20.158;2022-09-02T11:28:49;3.60;;;0.70;;
55800;SDS011;41730;51.960;20.158;2022-09-02T11:31:27;1.60;;;0.60;;
55800;SDS011;41730;51.960;20.158;2022-09-02T11:34:11;3.10;;;0.90;;
55800;SDS011;41730;51.960;20.158;2022-09-02T11:36:55;1.60;;;0.60;;
55800;SDS011;41730;51.960;20.158;2022-09-02T11:39:28;2.10;;;0.70;;
55800;SDS011;41730;51.960;20.158;2022-09-02T11:42:28;1.60;;;0.60;;
55800;SDS011;41730;51.960;20.158;2022-09-02T11:45:16;1.30;;;0.50;;
55800;SDS011;41730;51.960;20.158;2022-09-02T11:51:20;1.50;;;0.70;;
55800;SDS011;41730;51.960;20.158;2022-09-02T11:54:00;3.50;;;0.60;;
55800;SDS011;41730;51.960;20.158;2022-09-02T11:56:35;1.90;;;0.40;;
55800;SDS011;41730;51.960;20.158;2022-09-02T11:59:19;3.60;;;0.70;;
55800;SDS011;41730;51.960;20.158;2022-09-02T12:01:53;1.70;;;0.60;;
55800;SDS011;41730;51.960;20.158;2022-09-02T12:04:25;1.70;;;0.60;;
55800;SDS011;41730;51.960;20.158;2022-09-02T12:07:23;3.80;;;0.80;;
55800;SDS011;41730;51.960;20.158;2022-09-02T12:10:00;2.70;;;0.60;;
55800;SDS011;41730;51.960;20.158;2022-09-02T12:15:36;3.20;;;0.70;;
55800;SDS011;41730;51.960;20.158;2022-09-02T12:24:04;1.10;;;0.50;;
55800;SDS011;41730;51.960;20.158;2022-09-02T12:29:38;2.40;;;0.80;;
55800;SDS011;41730;51.960;20.158;2022-09-02T12:32:14;1.50;;;0.60;;
55800;SDS011;41730;51.960;20.158;2022-09-02T12:35:33;2.20;;;0.70;;
55800;SDS011;41730;51.960;20.158;2022-09-02T12:38:23;1.60;;;0.70;;
55800;SDS011;41730;51.960;20.158;2022-09-02T12:41:23;1.70;;;0.60;;
55800;SDS011;41730;51.960;20.158;2022-09-02T12:47:00;2.10;;;0.60;;
55800;SDS011;41730;51.960;20.158;2022-09-02T12:49:45;1.40;;;0.60;;
55800;SDS011;41730;51.960;20.158;2022-09-02T12:55:14;1.10;;;0.40;;
55800;SDS011;41730;51.960;20.158;2022-09-02T12:57:50;1.50;;;0.60;;
55800;SDS011;41730;51.960;20.158;2022-09-02T13:00:28;2.40;;;0.80;;
55800;SDS011;41730;51.960;20.158;2022-09-02T13:03:12;2.70;;;0.60;;
55800;SDS011;41730;51.960;20.158;2022-09-02T13:05:59;4.50;;;0.90;;
55800;SDS011;41730;51.960;20.158;2022-09-02T13:08:43;1.30;;;0.50;;
55800;SDS011;41730;51.960;20.158;2022-09-02T13:11:51;1.20;;;0.60;;
55800;SDS011;41730;51.960;20.158;2022-09-02T13:14:51;1.80;;;0.70;;
55800;SDS011;41730;51.960;20.158;2022-09-02T13:17:32;1.20;;;0.50;;
55800;SDS011;41730;51.960;20.158;2022-09-02T13:23:34;1.20;;;0.60;;
55800;SDS011;41730;51.960;20.158;2022-09-02T13:26:44;1.10;;;0.50;;
55800;SDS011;41730;51.960;20.158;2022-09-02T13:29:47;3.20;;;0.50;;
55800;SDS011;41730;51.960;20.158;2022-09-02T13:32:38;1.20;;;0.50;;
55800;SDS011;41730;51.960;20.158;2022-09-02T13:35:17;2.20;;;0.60;;
55800;SDS011;41730;51.960;20.158;2022-09-02T13:37:57;2.30;;;0.60;;
55800;SDS011;41730;51.960;20.158;2022-09-02T13:40:30;1.30;;;0.40;;
55800;SDS011;41730;51.960;20.158;2022-09-02T13:43:08;2.10;;;0.40;;
55800;SDS011;41730;51.960;20.158;2022-09-02T13:45:48;2.40;;;0.90;;
55800;SDS011;41730;51.960;20.158;2022-09-02T13:48:21;1.50;;;0.60;;
55800;SDS011;41730;51.960;20.158;2022-09-02T13:50:55;3.20;;;0.80;;
55800;SDS011;41730;51.960;20.158;2022-09-02T13:53:30;1.50;;;0.60;;
55800;SDS011;41730;51.960;20.158;2022-09-02T13:56:24;2.70;;;0.60;;
55800;SDS011;41730;51.960;20.158;2022-09-02T13:59:00;1.60;;;0.70;;
55800;SDS011;41730;51.960;20.158;2022-09-02T14:01:32;2.50;;;0.80;;
55800;SDS011;41730;51.960;20.158;2022-09-02T14:04:08;2.70;;;0.70;;
55800;SDS011;41730;51.960;20.158;2022-09-02T14:06:43;3.70;;;0.80;;
55800;SDS011;41730;51.960;20.158;2022-09-02T14:09:19;1.60;;;0.60;;
55800;SDS011;41730;51.960;20.158;2022-09-02T14:11:54;3.80;;;0.50;;
55800;SDS011;41730;51.960;20.158;2022-09-02T14:14:27;2.60;;;0.70;;
55800;SDS011;41730;51.960;20.158;2022-09-02T14:19:50;2.20;;;0.50;;
55800;SDS011;41730;51.960;20.158;2022-09-02T14:22:36;1.70;;;0.50;;
55800;SDS011;41730;51.960;20.158;2022-09-02T14:25:09;1.70;;;0.50;;
55800;SDS011;41730;51.960;20.158;2022-09-02T14:27:48;1.30;;;0.50;;
55800;SDS011;41730;51.960;20.158;2022-09-02T14:30:28;1.60;;;0.50;;
55800;SDS011;41730;51.960;20.158;2022-09-02T14:33:24;3.00;;;0.70;;
55800;SDS011;41730;51.960;20.158;2022-09-02T14:36:06;2.30;;;0.60;;
55800;SDS011;41730;51.960;20.158;2022-09-02T14:38:50;2.70;;;1.00;;
55800;SDS011;41730;51.960;20.158;2022-09-02T14:41:24;1.30;;;0.60;;
55800;SDS011;41730;51.960;20.158;2022-09-02T14:46:42;4.20;;;0.80;;
55800;SDS011;41730;51.960;20.158;2022-09-02T14:49:18;2.40;;;0.60;;
55800;SDS011;41730;51.960;20.158;2022-09-02T14:51:54;2.20;;;0.60;;
55800;SDS011;41730;51.960;20.158;2022-09-02T14:54:39;1.70;;;0.60;;
55800;SDS011;41730;51.960;20.158;2022-09-02T14:57:20;1.80;;;0.70;;
55800;SDS011;41730;51.960;20.158;2022-09-02T14:59:55;2.70;;;0.70;;
55800;SDS011;41730;51.960;20.158;2022-09-02T15:02:31;2.30;;;0.70;;
55800;SDS011;41730;51.960;20.158;2022-09-02T15:05:06;1.60;;;0.70;;
55800;SDS011;41730;51.960;20.158;2022-09-02T15:07:42;2.90;;;0.70;;
55800;SDS011;41730;51.960;20.158;2022-09-02T15:10:13;2.10;;;0.50;;
55800;SDS011;41730;51.960;20.158;2022-09-02T15:12:47;2.90;;;0.70;;
55800;SDS011;41730;51.960;20.158;2022-09-02T15:15:20;3.00;;;0.70;;
55800;SDS011;41730;51.960;20.158;2022-09-02T15:17:53;3.10;;;0.80;;
55800;SDS011;41730;51.960;20.158;2022-09-02T15:20:24;3.70;;;0.80;;
55800;SDS011;41730;51.960;20.158;2022-09-02T15:22:56;3.20;;;0.90;;
55800;SDS011;41730;51.960;20.158;2022-09-02T15:25:28;3.10;;;0.80;;
55800;SDS011;41730;51.960;20.158;2022-09-02T15:28:02;1.70;;;0.70;;
55800;SDS011;41730;51.960;20.158;2022-09-02T15:30:34;3.50;;;0.80;;
55800;SDS011;41730;51.960;20.158;2022-09-02T15:33:07;3.30;;;0.60;;
55800;SDS011;41730;51.960;20.158;2022-09-02T15:35:45;1.60;;;0.60;;
55800;SDS011;41730;51.960;20.158;2022-09-02T15:38:17;1.30;;;0.70;;
55800;SDS011;41730;51.960;20.158;2022-09-02T15:40:49;1.60;;;0.50;;
55800;SDS011;41730;51.960;20.158;2022-09-02T15:43:20;1.90;;;0.60;;
55800;SDS011;41730;51.960;20.158;2022-09-02T15:45:52;1.80;;;0.70;;
55800;SDS011;41730;51.960;20.158;2022-09-02T15:48:23;3.60;;;0.60;;
55800;SDS011;41730;51.960;20.158;2022-09-02T15:50:55;1.70;;;0.60;;
55800;SDS011;41730;51.960;20.158;2022-09-02T15:53:26;3.70;;;0.60;;
55800;SDS011;41730;51.960;20.158;2022-09-02T15:55:58;2.40;;;0.70;;
55800;SDS011;41730;51.960;20.158;2022-09-02T15:58:29;3.80;;;0.90;;
55800;SDS011;41730;51.960;20.158;2022-09-02T16:01:04;6.90;;;1.00;;